createdAt,value
2023-11-21T00:01:05.804Z,6.79
2023-11-21T00:03:33.007Z,6.67
2023-11-21T00:05:59.844Z,6.58
2023-11-21T00:08:26.312Z,6.62
2023-11-21T00:10:52.931Z,6.62
2023-11-21T00:13:19.707Z,6.56
2023-11-21T00:15:46.274Z,6.49
2023-11-21T00:18:12.989Z,6.50
2023-11-21T00:20:39.546Z,6.46
2023-11-21T00:23:06.144Z,6.34
2023-11-21T00:25:33.037Z,6.33
2023-11-21T00:27:59.869Z,6.38
2023-11-21T00:30:26.455Z,6.29
2023-11-21T00:32:53.034Z,6.27
2023-11-21T00:35:19.627Z,6.29
2023-11-21T00:37:46.162Z,6.38
2023-11-21T00:40:13.503Z,6.40
2023-11-21T00:42:40.352Z,6.36
2023-11-21T00:45:08.020Z,6.39
2023-11-21T00:47:34.789Z,6.42
2023-11-21T00:50:01.613Z,6.42
2023-11-21T00:52:28.382Z,6.44
2023-11-21T00:54:55.075Z,6.51
2023-11-21T00:57:21.674Z,6.55
2023-11-21T00:59:48.193Z,6.63
2023-11-21T01:02:14.786Z,6.60
2023-11-21T01:04:41.346Z,6.53
2023-11-21T01:07:08.256Z,6.53
2023-11-21T01:09:34.862Z,6.50
2023-11-21T01:12:01.968Z,6.50
2023-11-21T01:14:28.771Z,6.49
2023-11-21T01:16:55.566Z,6.47
2023-11-21T01:19:22.343Z,6.48
2023-11-21T01:21:48.918Z,6.56
2023-11-21T01:24:15.591Z,6.54
2023-11-21T01:26:42.047Z,6.39
2023-11-21T01:29:08.656Z,6.49
2023-11-21T01:31:35.357Z,6.51
2023-11-21T01:34:02.066Z,6.50
2023-11-21T01:36:34.802Z,6.48
2023-11-21T01:39:01.505Z,6.54
2023-11-21T01:41:29.895Z,6.47
2023-11-21T01:43:57.145Z,6.37
2023-11-21T01:46:24.421Z,6.35
2023-11-21T01:48:51.396Z,6.34
2023-11-21T01:51:18.544Z,6.32
2023-11-21T01:53:47.811Z,6.35
2023-11-21T01:56:14.577Z,6.32
2023-11-21T01:58:42.228Z,6.28
2023-11-21T02:01:09.910Z,6.26
2023-11-21T02:03:36.635Z,6.27
2023-11-21T02:06:03.952Z,6.29
2023-11-21T02:08:30.432Z,6.28
2023-11-21T02:10:58.747Z,6.33
2023-11-21T02:13:25.557Z,6.34
2023-11-21T02:15:53.559Z,6.49
2023-11-21T02:18:20.267Z,6.53
2023-11-21T02:20:47.826Z,6.57
2023-11-21T02:23:14.535Z,6.56
2023-11-21T02:25:41.065Z,6.60
2023-11-21T02:28:08.061Z,6.54
2023-11-21T02:30:34.977Z,6.56
2023-11-21T02:33:02.752Z,6.61
2023-11-21T02:35:32.607Z,6.63
2023-11-21T02:37:59.568Z,6.62
2023-11-21T02:40:27.594Z,6.70
2023-11-21T02:42:54.431Z,6.65
2023-11-21T02:45:22.332Z,6.58
2023-11-21T02:47:50.493Z,6.61
2023-11-21T02:50:17.597Z,6.63
2023-11-21T02:52:44.280Z,6.73
2023-11-21T02:55:10.970Z,6.76
2023-11-21T02:57:37.523Z,6.80
2023-11-21T03:00:04.753Z,6.78
2023-11-21T03:02:31.470Z,6.71
2023-11-21T03:04:58.230Z,6.70
2023-11-21T03:07:24.739Z,6.68
2023-11-21T03:09:51.571Z,6.54
2023-11-21T03:12:18.189Z,6.47
2023-11-21T03:14:44.757Z,6.51
2023-11-21T03:17:11.357Z,6.46
2023-11-21T03:19:37.898Z,6.45
2023-11-21T03:22:05.404Z,6.41
2023-11-21T03:24:33.006Z,6.41
2023-11-21T03:26:59.519Z,6.45
2023-11-21T03:29:27.051Z,6.45
2023-11-21T03:31:53.646Z,6.44
2023-11-21T03:34:27.997Z,6.42
2023-11-21T03:36:54.988Z,6.48
2023-11-21T03:39:21.965Z,6.55
2023-11-21T03:41:48.555Z,6.61
2023-11-21T03:44:15.776Z,6.66
2023-11-21T03:46:42.338Z,6.69
2023-11-21T03:49:09.012Z,6.73
2023-11-21T03:51:35.547Z,6.68
2023-11-21T03:54:02.026Z,6.65
2023-11-21T03:56:28.508Z,6.66
2023-11-21T03:58:55.094Z,6.70
2023-11-21T04:01:25.554Z,6.63
2023-11-21T04:03:52.403Z,6.57
2023-11-21T04:06:19.115Z,6.65
2023-11-21T04:08:46.383Z,6.69
2023-11-21T04:11:13.635Z,6.60
2023-11-21T04:13:41.106Z,6.69
2023-11-21T04:16:08.826Z,6.75
2023-11-21T04:18:37.647Z,6.76
2023-11-21T04:21:05.023Z,6.74
2023-11-21T04:23:32.953Z,6.69
2023-11-21T04:26:00.062Z,6.64
2023-11-21T04:28:26.775Z,6.58
2023-11-21T04:30:53.284Z,6.54
2023-11-21T04:33:19.946Z,6.49
2023-11-21T04:35:47.381Z,6.43
2023-11-21T04:38:14.029Z,6.46
2023-11-21T04:40:40.628Z,6.49
2023-11-21T04:43:07.229Z,6.47
2023-11-21T04:45:33.771Z,6.51
2023-11-21T04:48:00.392Z,6.54
2023-11-21T04:50:29.832Z,6.53
2023-11-21T04:52:56.438Z,6.52
2023-11-21T04:55:23.020Z,6.56
2023-11-21T04:57:49.620Z,6.63
2023-11-21T05:00:17.274Z,6.69
2023-11-21T05:02:45.802Z,6.77
2023-11-21T05:05:13.345Z,6.81
2023-11-21T05:07:40.832Z,6.79
2023-11-21T05:10:17.360Z,6.81
2023-11-21T05:12:43.995Z,6.73
2023-11-21T05:15:11.489Z,6.80
2023-11-21T05:17:40.060Z,6.86
2023-11-21T05:20:09.670Z,6.79
2023-11-21T05:22:36.737Z,6.78
2023-11-21T05:25:04.887Z,6.75
2023-11-21T05:27:34.450Z,6.78
2023-11-21T05:30:04.071Z,6.81
2023-11-21T05:32:30.635Z,6.79
2023-11-21T05:34:57.260Z,6.81
2023-11-21T05:37:24.415Z,6.87
2023-11-21T05:39:50.950Z,6.88
2023-11-21T05:42:18.079Z,6.84
2023-11-21T05:44:44.694Z,6.77
2023-11-21T05:47:11.622Z,6.87
2023-11-21T05:49:38.216Z,6.87
2023-11-21T05:52:06.343Z,6.86
2023-11-21T05:54:33.725Z,6.94
2023-11-21T05:57:01.049Z,7.00
2023-11-21T05:59:27.650Z,6.92
2023-11-21T06:01:54.944Z,6.99
2023-11-21T06:04:25.218Z,7.07
2023-11-21T06:06:53.821Z,7.13
2023-11-21T06:09:21.723Z,7.17
2023-11-21T06:11:48.173Z,7.19
2023-11-21T06:14:14.676Z,7.15
2023-11-21T06:16:42.008Z,7.14
2023-11-21T06:19:08.527Z,7.39
2023-11-21T06:21:35.212Z,7.42
2023-11-21T06:24:02.652Z,7.48
2023-11-21T06:26:29.569Z,7.62
2023-11-21T06:29:04.265Z,7.82
2023-11-21T06:31:31.368Z,8.02
2023-11-21T06:33:58.986Z,8.12
2023-11-21T06:36:25.669Z,8.28
2023-11-21T06:38:52.204Z,8.27
2023-11-21T06:41:18.767Z,8.27
2023-11-21T06:43:47.868Z,8.33
2023-11-21T06:46:17.684Z,8.25
2023-11-21T06:48:44.695Z,8.25
2023-11-21T06:51:11.475Z,8.26
2023-11-21T06:53:39.555Z,8.30
2023-11-21T06:56:16.514Z,8.30
2023-11-21T06:58:43.165Z,8.36
2023-11-21T07:01:09.833Z,8.46
2023-11-21T07:03:38.695Z,8.31
2023-11-21T07:06:05.871Z,8.35
2023-11-21T07:08:32.689Z,8.41
2023-11-21T07:10:59.259Z,8.46
2023-11-21T07:13:25.857Z,8.50
2023-11-21T07:15:52.399Z,8.52
2023-11-21T07:18:19.410Z,8.69
2023-11-21T07:20:46.050Z,8.83
2023-11-21T07:23:12.563Z,8.96
2023-11-21T07:25:39.147Z,9.19
2023-11-21T07:28:06.639Z,9.22
2023-11-21T07:30:33.569Z,9.42
2023-11-21T07:33:00.261Z,9.51
2023-11-21T07:35:27.755Z,9.56
2023-11-21T07:37:54.332Z,9.58
2023-11-21T07:40:21.014Z,9.57
2023-11-21T07:42:47.528Z,9.60
2023-11-21T07:45:14.198Z,9.67
2023-11-21T07:47:41.067Z,9.70
2023-11-21T07:50:09.045Z,9.73
2023-11-21T07:52:35.842Z,9.73
2023-11-21T07:55:02.820Z,9.74
2023-11-21T07:57:29.445Z,9.76
2023-11-21T07:59:56.379Z,9.75
2023-11-21T08:02:22.995Z,9.67
2023-11-21T08:04:52.647Z,9.60
2023-11-21T08:07:19.279Z,9.51
2023-11-21T08:09:45.858Z,9.50
2023-11-21T08:12:12.447Z,9.50
2023-11-21T08:14:40.199Z,9.48
2023-11-21T08:17:07.225Z,9.46
2023-11-21T08:19:34.303Z,9.47
2023-11-21T08:22:00.901Z,9.48
2023-11-21T08:24:27.719Z,9.54
2023-11-21T08:26:55.343Z,9.60
2023-11-21T08:29:21.847Z,9.56
2023-11-21T08:31:48.426Z,9.61
2023-11-21T08:34:16.448Z,9.60
2023-11-21T08:36:44.369Z,9.67
2023-11-21T08:39:14.528Z,9.68
2023-11-21T08:41:41.207Z,9.70
2023-11-21T08:44:08.139Z,9.79
2023-11-21T08:46:35.437Z,9.88
2023-11-21T08:49:02.546Z,9.90
2023-11-21T08:51:29.008Z,9.85
2023-11-21T08:53:56.074Z,9.90
2023-11-21T08:56:22.676Z,9.91
2023-11-21T08:58:49.211Z,9.95
2023-11-21T09:01:15.768Z,9.96
2023-11-21T09:03:42.682Z,9.99
2023-11-21T09:06:11.026Z,9.99
2023-11-21T09:08:38.259Z,10.09
2023-11-21T09:11:04.962Z,10.10
2023-11-21T09:13:31.520Z,10.07
2023-11-21T09:15:58.042Z,10.05
2023-11-21T09:18:24.708Z,10.12
2023-11-21T09:20:51.274Z,10.12
2023-11-21T09:23:17.890Z,10.19
2023-11-21T09:25:47.411Z,10.19
2023-11-21T09:28:14.325Z,10.14
2023-11-21T09:30:40.832Z,10.20
2023-11-21T09:33:07.869Z,10.20
2023-11-21T09:35:34.429Z,10.27
2023-11-21T09:38:02.819Z,10.28
2023-11-21T09:40:29.799Z,10.27
2023-11-21T09:42:58.314Z,10.26
2023-11-21T09:45:28.894Z,10.31
2023-11-21T09:47:59.606Z,10.28
2023-11-21T09:50:29.716Z,10.34
2023-11-21T09:53:17.525Z,10.35
2023-11-21T09:55:45.665Z,10.34
2023-11-21T09:58:15.403Z,10.48
2023-11-21T10:00:47.122Z,10.54
2023-11-21T10:03:14.675Z,10.62
2023-11-21T10:05:43.372Z,10.65
2023-11-21T10:08:11.709Z,10.71
2023-11-21T10:10:42.513Z,10.76
2023-11-21T10:13:13.214Z,10.83
2023-11-21T10:15:42.523Z,10.89
2023-11-21T10:18:10.643Z,10.95
2023-11-21T10:20:39.135Z,11.01
2023-11-21T10:23:08.582Z,11.06
2023-11-21T10:25:36.932Z,11.11
2023-11-21T10:28:08.173Z,11.12
2023-11-21T10:30:39.292Z,11.17
2023-11-21T10:33:06.691Z,11.13
2023-11-21T10:35:52.611Z,11.21
2023-11-21T10:38:19.413Z,11.22
2023-11-21T10:40:47.754Z,11.19
2023-11-21T10:43:16.170Z,11.38
2023-11-21T10:45:43.969Z,11.61
2023-11-21T10:48:16.771Z,11.60
2023-11-21T10:50:44.986Z,11.61
2023-11-21T10:53:13.050Z,11.56
2023-11-21T10:55:40.068Z,11.60
2023-11-21T10:58:08.384Z,11.64
2023-11-21T11:00:35.098Z,11.64
2023-11-21T11:03:02.429Z,11.71
2023-11-21T11:05:31.250Z,11.67
2023-11-21T11:08:04.176Z,11.73
2023-11-21T11:10:30.976Z,11.74
2023-11-21T11:12:58.657Z,11.75
2023-11-21T11:15:26.639Z,11.75
2023-11-21T11:17:53.566Z,11.70
2023-11-21T11:20:23.160Z,11.73
2023-11-21T11:23:10.148Z,11.74
2023-11-21T11:25:54.939Z,11.72
2023-11-21T11:28:27.644Z,11.67
2023-11-21T11:31:35.662Z,11.79
2023-11-21T11:34:27.036Z,11.86
2023-11-21T11:37:03.619Z,11.89
2023-11-21T11:39:31.855Z,11.91
2023-11-21T11:42:02.540Z,11.92
2023-11-21T11:44:47.041Z,11.96
2023-11-21T11:47:24.278Z,11.88
2023-11-21T11:50:15.209Z,11.94
2023-11-21T11:52:46.909Z,11.94
2023-11-21T11:55:16.833Z,11.93
2023-11-21T11:57:44.196Z,11.93
2023-11-21T12:00:30.039Z,12.01
2023-11-21T12:03:01.016Z,12.08
2023-11-21T12:05:31.767Z,12.05
2023-11-21T12:07:59.368Z,12.12
2023-11-21T12:10:27.538Z,12.16
2023-11-21T12:12:56.944Z,12.20
2023-11-21T12:15:24.259Z,12.18
2023-11-21T12:17:51.448Z,12.23
2023-11-21T12:20:21.272Z,12.27
2023-11-21T12:23:06.903Z,12.24
2023-11-21T12:25:34.356Z,12.34
2023-11-21T12:28:02.129Z,12.34
2023-11-21T12:30:34.005Z,12.36
2023-11-21T12:33:02.224Z,12.40
2023-11-21T12:35:36.421Z,12.43
2023-11-21T12:38:06.177Z,12.43
2023-11-21T12:40:33.147Z,12.40
2023-11-21T12:43:02.381Z,12.39
2023-11-21T12:45:30.266Z,12.41
2023-11-21T12:48:12.267Z,12.44
2023-11-21T12:50:40.155Z,12.44
2023-11-21T12:53:10.054Z,12.42
2023-11-21T12:55:40.364Z,12.30
2023-11-21T12:58:12.375Z,12.37
2023-11-21T13:00:47.962Z,12.36
2023-11-21T13:03:24.998Z,12.41
2023-11-21T13:05:53.126Z,12.41
2023-11-21T13:08:23.483Z,12.41
2023-11-21T13:10:52.998Z,12.42
2023-11-21T13:13:23.654Z,12.33
2023-11-21T13:16:01.763Z,12.37
2023-11-21T13:18:29.558Z,12.37
2023-11-21T13:20:57.889Z,12.29
2023-11-21T13:23:25.148Z,12.31
2023-11-21T13:25:58.165Z,12.29
2023-11-21T13:28:33.377Z,12.25
2023-11-21T13:31:10.686Z,12.37
2023-11-21T13:33:44.128Z,12.29
2023-11-21T13:36:11.803Z,12.32
2023-11-21T13:38:43.357Z,12.32
2023-11-21T13:41:11.444Z,12.22
2023-11-21T13:43:38.566Z,12.28
2023-11-21T13:46:14.718Z,12.21
2023-11-21T13:48:51.861Z,12.26
2023-11-21T13:51:18.904Z,12.22
2023-11-21T13:53:49.116Z,12.31
2023-11-21T13:56:20.683Z,12.30
2023-11-21T13:58:53.792Z,12.21
2023-11-21T14:01:31.010Z,12.33
2023-11-21T14:04:32.588Z,12.31
2023-11-21T14:07:02.235Z,12.33
2023-11-21T14:09:34.054Z,12.30
2023-11-21T14:12:01.909Z,12.31
2023-11-21T14:14:31.995Z,12.29
2023-11-21T14:16:59.987Z,12.22
2023-11-21T14:19:32.777Z,12.21
2023-11-21T14:21:59.462Z,12.25
2023-11-21T14:24:26.662Z,12.28
2023-11-21T14:26:53.985Z,12.26
2023-11-21T14:29:21.589Z,12.28
2023-11-21T14:31:48.447Z,12.27
2023-11-21T14:34:18.708Z,12.26
2023-11-21T14:36:47.243Z,12.25
2023-11-21T14:39:27.991Z,12.24
2023-11-21T14:41:57.814Z,12.24
2023-11-21T14:44:33.954Z,12.27
2023-11-21T14:47:01.656Z,12.31
2023-11-21T14:49:34.627Z,12.26
2023-11-21T14:52:01.696Z,12.09
2023-11-21T14:54:38.452Z,12.09
2023-11-21T14:57:06.221Z,12.01
2023-11-21T14:59:33.515Z,11.92
2023-11-21T15:02:01.434Z,11.80
2023-11-21T15:04:37.842Z,11.72
2023-11-21T15:07:05.449Z,11.79
2023-11-21T15:09:32.672Z,11.81
2023-11-21T15:12:15.462Z,11.82
2023-11-21T15:14:53.328Z,11.84
2023-11-21T15:17:27.890Z,11.93
2023-11-21T15:19:55.397Z,11.91
2023-11-21T15:22:22.717Z,11.90
2023-11-21T15:24:50.499Z,11.71
2023-11-21T15:27:18.359Z,11.74
2023-11-21T15:29:45.282Z,11.62
2023-11-21T15:32:12.501Z,11.53
2023-11-21T15:34:39.591Z,11.48
2023-11-21T15:37:11.930Z,11.40
2023-11-21T15:39:40.098Z,11.26
2023-11-21T15:42:08.517Z,11.06
2023-11-21T15:44:35.396Z,10.82
2023-11-21T15:47:05.043Z,10.87
2023-11-21T15:49:37.894Z,10.77
2023-11-21T15:52:11.116Z,10.72
2023-11-21T15:54:38.287Z,10.56
2023-11-21T15:57:05.756Z,10.61
2023-11-21T15:59:34.166Z,10.59
2023-11-21T16:02:01.945Z,10.53
2023-11-21T16:04:29.384Z,10.43
2023-11-21T16:06:56.042Z,10.28
2023-11-21T16:09:31.855Z,10.22
2023-11-21T16:12:03.450Z,10.16
2023-11-21T16:14:36.739Z,10.03
2023-11-21T16:17:04.411Z,9.95
2023-11-21T16:19:31.310Z,9.81
2023-11-21T16:21:57.909Z,9.58
2023-11-21T16:24:25.265Z,9.49
2023-11-21T16:26:51.839Z,9.47
2023-11-21T16:29:18.477Z,9.44
2023-11-21T16:31:46.673Z,9.35
2023-11-21T16:34:21.001Z,9.31
2023-11-21T16:36:47.833Z,9.11
2023-11-21T16:39:14.858Z,9.07
2023-11-21T16:41:42.919Z,8.94
2023-11-21T16:44:20.026Z,8.98
2023-11-21T16:46:48.410Z,8.96
2023-11-21T16:49:15.053Z,8.89
2023-11-21T16:51:41.636Z,8.80
2023-11-21T16:54:08.162Z,8.80
2023-11-21T16:56:34.751Z,8.72
2023-11-21T16:59:01.303Z,8.68
2023-11-21T17:01:28.994Z,8.74
2023-11-21T17:03:58.960Z,8.73
2023-11-21T17:06:28.766Z,8.74
2023-11-21T17:08:56.520Z,8.73
2023-11-21T17:11:22.953Z,8.72
2023-11-21T17:13:49.732Z,8.63
2023-11-21T17:16:17.575Z,8.65
2023-11-21T17:18:44.129Z,8.64
2023-11-21T17:21:19.347Z,8.64
2023-11-21T17:23:49.599Z,8.67
2023-11-21T17:26:17.149Z,8.71
2023-11-21T17:28:44.466Z,8.78
2023-11-21T17:31:11.115Z,8.72
2023-11-21T17:33:37.787Z,8.82
2023-11-21T17:36:10.106Z,8.83
2023-11-21T17:38:38.124Z,8.80
2023-11-21T17:41:05.542Z,8.78
2023-11-21T17:43:40.465Z,8.81
2023-11-21T17:46:09.059Z,8.80
2023-11-21T17:48:37.711Z,8.72
2023-11-21T17:51:04.587Z,8.73
2023-11-21T17:53:31.144Z,8.72
2023-11-21T17:55:57.740Z,8.75
2023-11-21T17:58:24.369Z,8.71
2023-11-21T18:00:50.988Z,8.58
2023-11-21T18:03:17.665Z,8.64
2023-11-21T18:05:45.020Z,8.46
2023-11-21T18:08:11.607Z,8.51
2023-11-21T18:10:38.113Z,8.39
2023-11-21T18:13:04.677Z,8.46
2023-11-21T18:15:31.220Z,8.49
2023-11-21T18:17:58.138Z,8.43
2023-11-21T18:20:24.816Z,8.51
2023-11-21T18:22:51.434Z,8.50
2023-11-21T18:25:19.084Z,8.53
2023-11-21T18:27:45.677Z,8.51
2023-11-21T18:30:12.666Z,8.48
2023-11-21T18:32:39.380Z,8.51
2023-11-21T18:35:06.686Z,8.47
2023-11-21T18:37:33.512Z,8.40
2023-11-21T18:40:00.095Z,8.34
2023-11-21T18:42:29.051Z,8.24
2023-11-21T18:44:59.240Z,8.17
2023-11-21T18:47:27.962Z,8.16
2023-11-21T18:49:56.038Z,8.09
2023-11-21T18:52:24.372Z,7.99
2023-11-21T18:54:51.190Z,8.01
2023-11-21T18:57:17.848Z,7.95
2023-11-21T18:59:45.209Z,7.95
2023-11-21T19:02:15.248Z,7.90
2023-11-21T19:04:42.179Z,7.89
2023-11-21T19:07:08.782Z,7.92
2023-11-21T19:09:36.545Z,7.84
2023-11-21T19:12:05.902Z,7.87
2023-11-21T19:14:32.852Z,7.80
2023-11-21T19:17:00.273Z,7.83
2023-11-21T19:19:27.753Z,7.83
2023-11-21T19:21:54.990Z,7.76
2023-11-21T19:24:21.675Z,7.85
2023-11-21T19:26:48.408Z,7.89
2023-11-21T19:29:14.966Z,7.81
2023-11-21T19:31:41.594Z,7.80
2023-11-21T19:34:08.282Z,7.83
2023-11-21T19:36:39.555Z,7.79
2023-11-21T19:39:06.148Z,7.77
2023-11-21T19:41:32.691Z,7.81
2023-11-21T19:44:00.169Z,7.76
2023-11-21T19:46:26.959Z,7.79
2023-11-21T19:48:54.520Z,7.77
2023-11-21T19:51:22.940Z,7.87
2023-11-21T19:53:49.990Z,7.87
2023-11-21T19:56:16.850Z,7.85
2023-11-21T19:58:43.475Z,7.90
2023-11-21T20:01:13.169Z,7.90
2023-11-21T20:03:39.961Z,7.84
2023-11-21T20:06:07.568Z,7.88
2023-11-21T20:08:37.494Z,7.82
2023-11-21T20:11:05.519Z,7.84
2023-11-21T20:13:32.660Z,7.86
2023-11-21T20:15:59.176Z,7.83
2023-11-21T20:18:27.371Z,7.82
2023-11-21T20:20:54.309Z,7.90
2023-11-21T20:23:21.793Z,7.94
2023-11-21T20:25:48.623Z,7.96
2023-11-21T20:28:15.244Z,7.97
2023-11-21T20:30:41.903Z,7.94
2023-11-21T20:33:08.662Z,7.79
2023-11-21T20:35:38.822Z,7.77
2023-11-21T20:38:06.113Z,7.68
2023-11-21T20:40:32.674Z,7.63
2023-11-21T20:43:03.899Z,7.58
2023-11-21T20:45:31.345Z,7.58
2023-11-21T20:47:58.444Z,7.57
2023-11-21T20:50:25.489Z,7.51
2023-11-21T20:52:52.315Z,7.53
2023-11-21T20:55:20.969Z,7.56
2023-11-21T20:57:47.653Z,7.44
2023-11-21T21:00:16.553Z,7.47
2023-11-21T21:02:43.507Z,7.39
2023-11-21T21:05:10.993Z,7.19
2023-11-21T21:07:37.601Z,7.28
2023-11-21T21:10:04.318Z,7.29
2023-11-21T21:12:30.843Z,7.43
2023-11-21T21:14:57.386Z,7.44
2023-11-21T21:17:23.967Z,7.51
2023-11-21T21:19:50.565Z,7.53
2023-11-21T21:22:17.142Z,7.53
2023-11-21T21:24:43.621Z,7.60
2023-11-21T21:27:10.109Z,7.66
2023-11-21T21:29:36.627Z,7.71
2023-11-21T21:32:03.297Z,7.76
2023-11-21T21:34:29.844Z,7.75
2023-11-21T21:36:56.546Z,7.74
2023-11-21T21:39:23.382Z,7.83
2023-11-21T21:41:52.000Z,7.83
2023-11-21T21:44:18.715Z,7.81
2023-11-21T21:46:45.349Z,7.84
2023-11-21T21:49:12.606Z,7.81
2023-11-21T21:51:39.125Z,7.73
2023-11-21T21:54:08.139Z,7.67
2023-11-21T21:56:36.358Z,7.56
2023-11-21T21:59:02.949Z,7.35
2023-11-21T22:01:31.931Z,7.24
2023-11-21T22:04:01.047Z,7.23
2023-11-21T22:06:29.855Z,7.23
2023-11-21T22:08:57.384Z,7.38
2023-11-21T22:11:24.049Z,7.23
2023-11-21T22:13:50.633Z,7.15
2023-11-21T22:16:18.410Z,7.27
2023-11-21T22:18:45.019Z,7.30
2023-11-21T22:21:15.586Z,7.32
2023-11-21T22:23:42.060Z,7.23
2023-11-21T22:26:08.642Z,7.21
2023-11-21T22:28:36.195Z,7.11
2023-11-21T22:31:02.838Z,7.05
2023-11-21T22:33:29.333Z,6.89
2023-11-21T22:35:55.801Z,6.78
2023-11-21T22:38:22.365Z,6.71
2023-11-21T22:40:49.131Z,6.57
2023-11-21T22:43:17.751Z,6.48
2023-11-21T22:45:44.904Z,6.41
2023-11-21T22:48:11.893Z,6.39
2023-11-21T22:50:38.912Z,6.35
2023-11-21T22:53:05.463Z,6.30
2023-11-21T22:55:33.449Z,6.31
2023-11-21T22:58:00.658Z,6.27
2023-11-21T23:00:30.723Z,6.22
2023-11-21T23:02:58.345Z,6.22
2023-11-21T23:05:24.967Z,6.29
2023-11-21T23:07:51.681Z,6.51
2023-11-21T23:10:19.288Z,6.50
2023-11-21T23:12:45.947Z,6.41
2023-11-21T23:15:12.452Z,6.41
2023-11-21T23:17:41.393Z,6.26
2023-11-21T23:20:11.075Z,6.18
2023-11-21T23:22:41.261Z,6.10
2023-11-21T23:25:09.644Z,6.21
2023-11-21T23:27:36.196Z,6.33
2023-11-21T23:30:02.837Z,6.30
2023-11-21T23:32:29.501Z,6.19
2023-11-21T23:34:56.125Z,6.23
2023-11-21T23:37:22.933Z,6.15
2023-11-21T23:39:49.550Z,6.16
2023-11-21T23:42:17.495Z,6.15
2023-11-21T23:44:43.923Z,6.17
2023-11-21T23:47:10.973Z,6.10
2023-11-21T23:49:37.738Z,6.00
2023-11-21T23:52:04.539Z,5.85
2023-11-21T23:54:31.169Z,5.86
2023-11-21T23:56:59.105Z,5.83
2023-11-21T23:59:26.368Z,5.86
